Time;durP1;ratioP1;P1;durP2;ratioP2;P2;SDS_P1;SDS_P2;PMS_P1;PMS_P2;Temp;Humidity;BMP_temperature;BMP_pressure;BME280_temperature;BME280_humidity;BME280_pressure;Samples;Min_cycle;Max_cycle;Signal;HPM_P1;HPM_P2
2021/12/27 00:01:54;;;;;;;74.93;10.93;;;;;;;;;;5075522;28;20559;-64
2021/12/27 00:04:23;;;;;;;67.18;8.90;;;;;;;;;;5075708;28;20297;-63
2021/12/27 00:06:50;;;;;;;69.23;10.20;;;;;;;;;;5075673;28;20202;-63
2021/12/27 00:09:17;;;;;;;69.03;11.10;;;;;;;;;;5075430;28;20799;-63
2021/12/27 00:11:44;;;;;;;69.00;10.50;;;;;;;;;;5075255;28;20575;-65
2021/12/27 00:14:11;;;;;;;69.33;9.70;;;;;;;;;;5075302;28;20648;-63
2021/12/27 00:16:39;;;;;;;71.75;10.13;;;;;;;;;;5075560;28;20534;-64
2021/12/27 00:19:06;;;;;;;71.27;9.70;;;;;;;;;;5075138;28;20230;-63
2021/12/27 00:21:34;;;;;;;67.72;10.07;;;;;;;;;;5075292;28;20473;-64
2021/12/27 00:24:01;;;;;;;67.78;9.52;;;;;;;;;;5075284;28;20297;-64
2021/12/27 00:26:29;;;;;;;69.78;11.00;;;;;;;;;;5075073;28;20238;-65
2021/12/27 00:28:56;;;;;;;67.00;10.32;;;;;;;;;;5074778;28;20288;-63
2021/12/27 00:31:23;;;;;;;68.37;8.87;;;;;;;;;;5075135;28;20236;-65
2021/12/27 00:33:50;;;;;;;66.20;9.25;;;;;;;;;;5075115;28;20455;-63
2021/12/27 00:36:17;;;;;;;70.38;10.40;;;;;;;;;;5075091;28;20223;-64
2021/12/27 00:38:46;;;;;;;70.03;10.95;;;;;;;;;;5074596;28;20316;-63
2021/12/27 00:41:13;;;;;;;70.43;10.83;;;;;;;;;;5074942;28;20608;-63
2021/12/27 00:43:40;;;;;;;70.85;11.07;;;;;;;;;;5074966;28;20550;-63
2021/12/27 00:46:07;;;;;;;68.85;10.02;;;;;;;;;;5075017;28;20312;-64
2021/12/27 00:48:34;;;;;;;65.90;9.67;;;;;;;;;;5074403;28;20210;-63
2021/12/27 00:51:02;;;;;;;69.35;9.95;;;;;;;;;;5074575;28;20550;-65
2021/12/27 00:53:30;;;;;;;72.20;11.60;;;;;;;;;;5074541;28;20682;-64
2021/12/27 00:55:58;;;;;;;70.70;10.40;;;;;;;;;;5074556;28;20801;-63
2021/12/27 00:58:25;;;;;;;68.53;11.07;;;;;;;;;;5074292;28;21022;-63
2021/12/27 01:00:52;;;;;;;75.47;11.68;;;;;;;;;;5074480;28;20236;-65
2021/12/27 01:03:20;;;;;;;72.18;11.10;;;;;;;;;;5074483;28;20289;-65
2021/12/27 01:05:48;;;;;;;70.68;11.55;;;;;;;;;;5074519;28;20205;-64
2021/12/27 01:08:15;;;;;;;71.57;11.80;;;;;;;;;;5074078;28;20586;-64
2021/12/27 01:13:38;;;;;;;69.18;10.95;;;;;;;;;;5074204;28;20200;-64
2021/12/27 01:16:12;;;;;;;70.03;10.80;;;;;;;;;;5074365;28;20214;-63
2021/12/27 01:18:41;;;;;;;69.37;11.07;;;;;;;;;;5073682;28;20661;-65
2021/12/27 01:21:08;;;;;;;77.63;11.30;;;;;;;;;;5074390;28;20472;-64
2021/12/27 01:23:35;;;;;;;70.50;11.05;;;;;;;;;;5074219;28;20205;-63
2021/12/27 01:26:02;;;;;;;71.47;11.32;;;;;;;;;;5074049;28;20209;-65
2021/12/27 01:28:31;;;;;;;68.18;10.18;;;;;;;;;;5073804;28;20202;-64
2021/12/27 01:30:58;;;;;;;73.28;12.20;;;;;;;;;;5073954;28;20239;-64
2021/12/27 01:33:26;;;;;;;72.90;11.93;;;;;;;;;;5073776;28;20201;-64
2021/12/27 01:35:53;;;;;;;68.20;10.32;;;;;;;;;;5074098;28;20580;-64
2021/12/27 01:38:21;;;;;;;70.22;10.73;;;;;;;;;;5073715;28;20225;-64
2021/12/27 01:40:50;;;;;;;71.75;11.88;;;;;;;;;;5073828;28;20258;-64
2021/12/27 01:43:20;;;;;;;70.85;10.77;;;;;;;;;;5073611;28;20205;-65
2021/12/27 01:45:50;;;;;;;71.72;10.88;;;;;;;;;;5073575;28;20301;-64
2021/12/27 01:48:20;;;;;;;68.90;11.20;;;;;;;;;;5073594;28;20200;-65
2021/12/27 01:50:49;;;;;;;70.00;11.15;;;;;;;;;;5073530;28;20235;-64
2021/12/27 01:53:16;;;;;;;78.47;10.63;;;;;;;;;;5073645;28;20209;-64
2021/12/27 01:55:43;;;;;;;65.88;10.07;;;;;;;;;;5073514;28;20299;-64
2021/12/27 01:58:11;;;;;;;69.03;11.38;;;;;;;;;;5073114;28;20201;-64
2021/12/27 02:00:40;;;;;;;74.53;13.30;;;;;;;;;;5073505;28;20233;-64
2021/12/27 02:03:09;;;;;;;69.03;10.48;;;;;;;;;;5071647;28;20208;-65
2021/12/27 02:05:36;;;;;;;70.63;11.07;;;;;;;;;;5073772;28;20543;-64
2021/12/27 02:08:04;;;;;;;74.80;10.93;;;;;;;;;;5073282;28;20217;-65
2021/12/27 02:10:32;;;;;;;74.05;11.75;;;;;;;;;;5073186;28;20698;-63
2021/12/27 02:12:59;;;;;;;68.40;10.85;;;;;;;;;;5073035;28;20209;-64
2021/12/27 02:15:26;;;;;;;70.18;10.82;;;;;;;;;;5073194;28;20772;-65
2021/12/27 02:17:53;;;;;;;68.53;10.95;;;;;;;;;;5072341;28;20205;-64
2021/12/27 02:20:23;;;;;;;67.47;10.02;;;;;;;;;;5072824;28;20226;-64
2021/12/27 02:22:51;;;;;;;65.80;9.48;;;;;;;;;;5072903;28;20301;-65
2021/12/27 02:25:18;;;;;;;67.47;10.60;;;;;;;;;;5072906;28;20209;-64
2021/12/27 02:27:46;;;;;;;68.25;10.45;;;;;;;;;;5072578;28;20296;-64
2021/12/27 02:30:17;;;;;;;70.27;10.70;;;;;;;;;;5072789;28;20217;-63
2021/12/27 02:32:48;;;;;;;69.97;11.10;;;;;;;;;;5072914;28;20448;-65
2021/12/27 02:35:17;;;;;;;66.30;9.18;;;;;;;;;;5072990;28;20451;-64
2021/12/27 02:37:46;;;;;;;67.57;9.70;;;;;;;;;;5072346;28;20242;-64
2021/12/27 02:40:13;;;;;;;70.13;10.67;;;;;;;;;;5072622;28;20487;-65
2021/12/27 02:42:57;;;;;;;71.37;10.07;;;;;;;;;;5072539;28;20448;-65
2021/12/27 02:45:25;;;;;;;67.90;9.57;;;;;;;;;;5072379;28;20986;-65
2021/12/27 02:47:52;;;;;;;68.57;10.90;;;;;;;;;;5072347;28;20456;-63
2021/12/27 02:50:19;;;;;;;73.35;10.07;;;;;;;;;;5072569;28;20222;-64
2021/12/27 02:52:47;;;;;;;68.53;9.95;;;;;;;;;;5072309;28;20207;-65
2021/12/27 02:55:15;;;;;;;69.40;9.93;;;;;;;;;;5072462;28;20217;-64
2021/12/27 02:57:43;;;;;;;68.43;10.80;;;;;;;;;;5072000;28;20213;-65
2021/12/27 03:00:15;;;;;;;68.70;9.05;;;;;;;;;;5070523;28;20488;-64
2021/12/27 03:02:43;;;;;;;66.70;9.15;;;;;;;;;;5072313;28;20210;-64
2021/12/27 03:05:11;;;;;;;69.13;10.10;;;;;;;;;;5072044;28;20545;-64
2021/12/27 03:07:39;;;;;;;67.80;10.13;;;;;;;;;;5071860;28;20212;-64
2021/12/27 03:10:09;;;;;;;66.45;9.60;;;;;;;;;;5071967;28;20312;-64
2021/12/27 03:12:38;;;;;;;67.60;9.90;;;;;;;;;;5072097;28;20586;-64
2021/12/27 03:15:05;;;;;;;69.97;10.17;;;;;;;;;;5072234;28;20546;-64
2021/12/27 03:17:33;;;;;;;68.40;9.93;;;;;;;;;;5071666;28;20448;-64
2021/12/27 03:20:00;;;;;;;67.00;9.88;;;;;;;;;;5071731;28;20248;-64
2021/12/27 03:22:27;;;;;;;66.17;9.40;;;;;;;;;;5071893;28;20213;-64
2021/12/27 03:24:54;;;;;;;64.82;8.60;;;;;;;;;;5071877;28;20534;-64
2021/12/27 03:27:23;;;;;;;67.78;9.07;;;;;;;;;;5071827;28;20601;-65
2021/12/27 03:29:50;;;;;;;70.72;10.05;;;;;;;;;;5071181;28;20629;-64
2021/12/27 03:32:20;;;;;;;72.25;9.80;;;;;;;;;;5071846;28;20229;-64
2021/12/27 03:34:54;;;;;;;69.22;9.82;;;;;;;;;;5071881;28;20205;-64
2021/12/27 03:37:21;;;;;;;68.47;10.03;;;;;;;;;;5071545;28;20263;-63
2021/12/27 03:39:49;;;;;;;66.75;10.18;;;;;;;;;;5071845;28;20484;-64
2021/12/27 03:42:16;;;;;;;66.95;9.18;;;;;;;;;;5071844;28;20208;-65
2021/12/27 03:44:46;;;;;;;65.80;9.07;;;;;;;;;;5071720;28;20207;-64
2021/12/27 03:47:13;;;;;;;73.70;9.50;;;;;;;;;;5071432;28;20449;-65
2021/12/27 03:49:40;;;;;;;64.30;7.43;;;;;;;;;;5071659;28;20715;-64
2021/12/27 03:52:08;;;;;;;64.97;8.77;;;;;;;;;;5071916;28;20452;-64
2021/12/27 03:54:35;;;;;;;68.57;9.37;;;;;;;;;;5071758;28;20217;-64
2021/12/27 03:57:02;;;;;;;64.40;7.90;;;;;;;;;;5071826;28;20555;-64
2021/12/27 03:59:51;;;;;;;66.13;8.70;;;;;;;;;;5071392;28;20480;-64
2021/12/27 04:02:19;;;;;;;67.43;10.27;;;;;;;;;;5071392;28;20547;-64
2021/12/27 04:04:46;;;;;;;65.70;9.80;;;;;;;;;;5071496;28;20301;-65
2021/12/27 04:07:14;;;;;;;64.47;8.10;;;;;;;;;;5071167;28;20987;-64
2021/12/27 04:09:41;;;;;;;66.33;8.50;;;;;;;;;;5071273;28;20465;-65
2021/12/27 04:12:08;;;;;;;66.17;8.13;;;;;;;;;;5071338;28;20461;-64
2021/12/27 04:14:36;;;;;;;63.27;7.10;;;;;;;;;;5071318;28;21062;-64
2021/12/27 04:17:03;;;;;;;63.37;7.00;;;;;;;;;;5071295;28;20535;-64
2021/12/27 04:19:31;;;;;;;67.13;8.80;;;;;;;;;;5071279;28;20846;-64
2021/12/27 04:21:59;;;;;;;66.37;7.97;;;;;;;;;;5071403;28;20906;-64
2021/12/27 04:24:26;;;;;;;63.00;6.43;;;;;;;;;;5071319;28;20444;-64
2021/12/27 04:26:53;;;;;;;65.43;7.53;;;;;;;;;;5071285;28;20974;-65
2021/12/27 04:29:20;;;;;;;70.83;6.83;;;;;;;;;;5070912;28;20297;-64
2021/12/27 04:31:47;;;;;;;62.70;6.00;;;;;;;;;;5071199;28;20547;-65
2021/12/27 04:34:14;;;;;;;62.05;6.35;;;;;;;;;;5071299;28;20534;-64
2021/12/27 04:36:43;;;;;;;63.97;7.45;;;;;;;;;;5071374;28;20300;-65
2021/12/27 04:39:10;;;;;;;63.40;7.37;;;;;;;;;;5070824;28;20218;-64
2021/12/27 04:41:37;;;;;;;63.43;6.53;;;;;;;;;;5073277;28;20467;-64
2021/12/27 04:44:05;;;;;;;65.30;8.40;;;;;;;;;;5074719;28;20809;-64
2021/12/27 04:46:32;;;;;;;68.10;8.60;;;;;;;;;;5074819;28;20446;-64
2021/12/27 04:48:59;;;;;;;63.08;7.85;;;;;;;;;;5074675;28;20456;-63
2021/12/27 04:51:26;;;;;;;64.05;8.27;;;;;;;;;;5074935;28;20228;-64
2021/12/27 04:53:55;;;;;;;62.07;6.80;;;;;;;;;;5074621;28;20673;-64
2021/12/27 04:56:22;;;;;;;63.73;7.63;;;;;;;;;;5074557;28;20493;-65
2021/12/27 04:58:49;;;;;;;61.97;6.70;;;;;;;;;;5074237;28;20532;-64
2021/12/27 05:01:17;;;;;;;62.47;6.78;;;;;;;;;;5074502;28;20613;-63
2021/12/27 05:03:44;;;;;;;63.83;7.27;;;;;;;;;;5074451;28;20651;-64
2021/12/27 05:06:13;;;;;;;68.22;8.43;;;;;;;;;;5074494;28;20444;-64
2021/12/27 05:08:40;;;;;;;64.22;7.70;;;;;;;;;;5074108;28;20720;-64
2021/12/27 05:11:09;;;;;;;65.90;8.52;;;;;;;;;;5074509;28;20272;-64
2021/12/27 05:13:36;;;;;;;63.95;7.80;;;;;;;;;;5074191;28;20213;-63
2021/12/27 05:16:04;;;;;;;63.80;8.00;;;;;;;;;;5074282;28;20245;-63
2021/12/27 05:18:31;;;;;;;64.23;7.63;;;;;;;;;;5074106;28;20454;-64
2021/12/27 05:20:58;;;;;;;66.57;8.13;;;;;;;;;;5074196;28;21021;-65
2021/12/27 05:23:25;;;;;;;63.80;7.32;;;;;;;;;;5074075;28;20212;-64
2021/12/27 05:25:53;;;;;;;63.87;7.50;;;;;;;;;;5074352;28;20237;-65
2021/12/27 05:28:21;;;;;;;64.97;7.93;;;;;;;;;;5073774;28;20540;-63
2021/12/27 05:30:51;;;;;;;64.13;8.07;;;;;;;;;;5074192;28;20738;-64
2021/12/27 05:33:18;;;;;;;63.13;6.80;;;;;;;;;;5074036;28;20457;-63
2021/12/27 05:35:46;;;;;;;66.07;8.27;;;;;;;;;;5074008;28;20526;-64
2021/12/27 05:38:13;;;;;;;63.97;7.40;;;;;;;;;;5073655;28;20448;-64
2021/12/27 05:40:40;;;;;;;64.90;7.30;;;;;;;;;;5073913;28;20576;-64
2021/12/27 05:43:07;;;;;;;63.60;6.83;;;;;;;;;;5073849;28;20451;-64
2021/12/27 05:45:36;;;;;;;65.03;7.20;;;;;;;;;;5073909;28;20462;-64
2021/12/27 05:48:04;;;;;;;64.67;7.83;;;;;;;;;;5073504;28;20468;-65
2021/12/27 05:50:31;;;;;;;65.20;7.75;;;;;;;;;;5073540;28;20546;-64
2021/12/27 05:52:58;;;;;;;63.65;7.45;;;;;;;;;;5073156;28;20211;-63
2021/12/27 05:55:25;;;;;;;64.30;7.97;;;;;;;;;;5073754;28;20213;-64
2021/12/27 05:57:53;;;;;;;63.20;7.80;;;;;;;;;;5073375;28;20466;-64
2021/12/27 06:00:21;;;;;;;65.18;8.15;;;;;;;;;;5073310;28;20493;-64
2021/12/27 06:02:51;;;;;;;66.20;8.48;;;;;;;;;;5073417;28;20204;-65
2021/12/27 06:05:18;;;;;;;64.77;8.40;;;;;;;;;;5073339;28;20206;-64
2021/12/27 06:07:46;;;;;;;66.10;8.83;;;;;;;;;;5073234;28;20444;-64
2021/12/27 06:10:14;;;;;;;64.30;8.67;;;;;;;;;;5073361;28;20468;-64
2021/12/27 06:12:41;;;;;;;64.93;7.80;;;;;;;;;;5072971;28;21013;-64
2021/12/27 06:15:09;;;;;;;68.00;9.30;;;;;;;;;;5073129;28;20555;-64
2021/12/27 06:17:37;;;;;;;64.85;8.73;;;;;;;;;;5072792;28;20444;-64
2021/12/27 06:20:07;;;;;;;64.97;8.95;;;;;;;;;;5073117;28;20315;-64
2021/12/27 06:22:35;;;;;;;65.68;9.27;;;;;;;;;;5073277;28;20206;-65
2021/12/27 06:25:03;;;;;;;66.18;8.30;;;;;;;;;;5073143;28;20305;-64
2021/12/27 06:27:31;;;;;;;66.93;9.65;;;;;;;;;;5072675;28;20300;-65
2021/12/27 06:29:58;;;;;;;67.60;9.20;;;;;;;;;;5072798;28;20205;-64
2021/12/27 06:32:25;;;;;;;65.90;9.38;;;;;;;;;;5072649;28;20445;-64
2021/12/27 06:34:52;;;;;;;64.15;7.82;;;;;;;;;;5072973;28;20213;-64
2021/12/27 06:37:21;;;;;;;67.45;8.98;;;;;;;;;;5072466;28;20299;-64
2021/12/27 06:39:48;;;;;;;67.10;8.13;;;;;;;;;;5072490;28;20233;-63
2021/12/27 06:42:15;;;;;;;67.27;9.17;;;;;;;;;;5072544;28;20538;-65
2021/12/27 06:44:42;;;;;;;65.40;8.43;;;;;;;;;;5072984;28;20535;-64
2021/12/27 06:47:10;;;;;;;68.10;8.60;;;;;;;;;;5072464;28;20455;-65
2021/12/27 06:49:38;;;;;;;64.95;8.38;;;;;;;;;;5072667;28;20213;-65
2021/12/27 06:52:05;;;;;;;65.22;8.63;;;;;;;;;;5072360;28;20231;-65
2021/12/27 06:54:34;;;;;;;64.80;8.77;;;;;;;;;;5072455;28;20228;-64
2021/12/27 06:57:02;;;;;;;65.40;8.20;;;;;;;;;;5072706;28;20206;-65
2021/12/27 06:59:29;;;;;;;66.57;8.50;;;;;;;;;;5072263;28;20530;-64
2021/12/27 07:01:56;;;;;;;66.55;8.25;;;;;;;;;;5072282;28;20234;-64
2021/12/27 07:04:24;;;;;;;65.95;8.45;;;;;;;;;;5072189;28;20210;-64
2021/12/27 07:06:51;;;;;;;67.20;8.98;;;;;;;;;;5072375;28;20687;-63
2021/12/27 07:09:18;;;;;;;67.25;8.93;;;;;;;;;;5072004;28;20591;-64
2021/12/27 07:11:46;;;;;;;67.05;9.40;;;;;;;;;;5071655;28;20224;-64
2021/12/27 07:14:13;;;;;;;67.33;9.30;;;;;;;;;;5072203;28;20295;-65
2021/12/27 07:16:41;;;;;;;66.53;9.32;;;;;;;;;;5072064;28;20939;-63
2021/12/27 07:19:08;;;;;;;66.07;9.05;;;;;;;;;;5071893;28;20585;-64
2021/12/27 07:21:35;;;;;;;65.50;9.23;;;;;;;;;;5071951;28;20231;-63
2021/12/27 07:24:02;;;;;;;66.00;8.30;;;;;;;;;;5071933;28;20215;-65
2021/12/27 07:26:29;;;;;;;64.22;8.00;;;;;;;;;;5071879;28;20209;-63
2021/12/27 07:28:58;;;;;;;67.25;8.30;;;;;;;;;;5071877;28;20211;-65
2021/12/27 07:31:25;;;;;;;65.40;8.70;;;;;;;;;;5071914;28;20603;-64
2021/12/27 07:33:52;;;;;;;67.47;9.63;;;;;;;;;;5071789;28;20211;-65
2021/12/27 07:36:19;;;;;;;66.95;8.60;;;;;;;;;;5071889;28;20201;-64
2021/12/27 07:38:47;;;;;;;67.90;9.57;;;;;;;;;;5071556;28;20731;-65
2021/12/27 07:41:14;;;;;;;66.63;9.15;;;;;;;;;;5071588;28;20671;-64
2021/12/27 07:43:41;;;;;;;68.80;9.55;;;;;;;;;;5071895;28;20212;-64
2021/12/27 07:46:10;;;;;;;72.53;10.15;;;;;;;;;;5071877;28;20209;-65
2021/12/27 07:48:37;;;;;;;69.45;9.48;;;;;;;;;;5071495;28;20201;-65
2021/12/27 07:51:04;;;;;;;69.90;10.65;;;;;;;;;;5070518;28;20308;-64
2021/12/27 07:53:32;;;;;;;67.30;9.45;;;;;;;;;;5071443;28;20206;-63
2021/12/27 07:55:59;;;;;;;68.38;8.95;;;;;;;;;;5071767;28;20207;-64
2021/12/27 07:58:26;;;;;;;69.18;11.05;;;;;;;;;;5071305;28;20756;-64
2021/12/27 08:00:54;;;;;;;69.78;10.85;;;;;;;;;;5071506;28;20225;-64
2021/12/27 08:03:22;;;;;;;71.88;10.88;;;;;;;;;;5071529;28;20299;-65
2021/12/27 08:05:50;;;;;;;70.15;10.43;;;;;;;;;;5071412;28;20297;-64
2021/12/27 08:08:17;;;;;;;69.85;11.45;;;;;;;;;;5071227;28;20227;-64
2021/12/27 08:10:44;;;;;;;67.75;11.15;;;;;;;;;;5071541;28;20227;-64
2021/12/27 08:13:12;;;;;;;69.32;11.63;;;;;;;;;;5071362;28;20220;-65
2021/12/27 08:15:39;;;;;;;70.55;11.15;;;;;;;;;;5072280;28;20889;-64
2021/12/27 08:18:06;;;;;;;67.93;10.50;;;;;;;;;;5075223;28;20208;-64
2021/12/27 08:20:35;;;;;;;69.57;10.82;;;;;;;;;;5075094;28;20677;-64
2021/12/27 08:23:02;;;;;;;67.60;10.10;;;;;;;;;;5075456;28;20205;-64
2021/12/27 08:25:29;;;;;;;72.03;11.80;;;;;;;;;;5075436;28;20205;-64
2021/12/27 08:27:56;;;;;;;70.88;11.23;;;;;;;;;;5074957;28;20681;-64
2021/12/27 08:30:24;;;;;;;69.13;11.57;;;;;;;;;;5075039;28;20217;-64
2021/12/27 08:32:52;;;;;;;68.53;10.23;;;;;;;;;;5074994;28;20295;-64
2021/12/27 08:35:20;;;;;;;69.93;11.57;;;;;;;;;;5075013;28;20247;-64
2021/12/27 08:37:48;;;;;;;70.90;10.77;;;;;;;;;;5074711;28;20298;-64
2021/12/27 08:40:16;;;;;;;69.68;11.23;;;;;;;;;;5074895;28;20225;-64
2021/12/27 08:42:43;;;;;;;69.22;11.15;;;;;;;;;;5074950;28;20206;-64
2021/12/27 08:45:10;;;;;;;66.68;10.15;;;;;;;;;;5075030;28;20649;-65
2021/12/27 08:47:38;;;;;;;69.15;10.25;;;;;;;;;;5075000;28;20617;-63
2021/12/27 08:50:06;;;;;;;69.97;10.60;;;;;;;;;;5074935;28;20229;-64
2021/12/27 08:52:33;;;;;;;69.75;10.27;;;;;;;;;;5074811;28;20205;-64
2021/12/27 08:55:02;;;;;;;68.03;11.20;;;;;;;;;;5074772;28;20657;-64
2021/12/27 08:57:29;;;;;;;72.57;10.40;;;;;;;;;;5074444;28;20573;-64
2021/12/27 08:59:57;;;;;;;67.68;11.32;;;;;;;;;;5074975;28;20215;-64
2021/12/27 09:02:24;;;;;;;71.70;10.48;;;;;;;;;;5074616;28;20232;-64
2021/12/27 09:04:51;;;;;;;67.90;10.45;;;;;;;;;;5074777;28;20206;-64
2021/12/27 09:07:19;;;;;;;68.13;9.82;;;;;;;;;;5074163;28;20707;-64
2021/12/27 09:09:46;;;;;;;68.95;10.10;;;;;;;;;;5074531;28;20246;-64
2021/12/27 09:12:14;;;;;;;66.70;10.05;;;;;;;;;;5074191;28;20678;-64
2021/12/27 09:14:42;;;;;;;66.35;9.05;;;;;;;;;;5074250;28;20296;-64
2021/12/27 09:17:09;;;;;;;67.33;9.40;;;;;;;;;;5074139;28;20673;-64
2021/12/27 09:19:36;;;;;;;67.00;9.52;;;;;;;;;;5074278;28;20451;-64
2021/12/27 09:22:04;;;;;;;71.45;10.73;;;;;;;;;;5074181;28;20600;-65
2021/12/27 09:24:31;;;;;;;66.25;8.80;;;;;;;;;;5074147;28;20209;-64
2021/12/27 09:26:58;;;;;;;65.93;9.00;;;;;;;;;;5072955;28;20251;-64
2021/12/27 09:29:28;;;;;;;66.10;8.52;;;;;;;;;;5073493;28;20990;-64
2021/12/27 09:31:55;;;;;;;65.97;8.90;;;;;;;;;;5074081;28;20607;-64
2021/12/27 09:34:22;;;;;;;67.70;8.83;;;;;;;;;;5074049;28;20838;-64
2021/12/27 09:36:49;;;;;;;66.90;8.63;;;;;;;;;;5074007;28;20803;-65
2021/12/27 09:39:17;;;;;;;65.10;8.07;;;;;;;;;;5073621;28;20445;-65
2021/12/27 09:41:44;;;;;;;66.27;6.97;;;;;;;;;;5073656;28;20922;-64
2021/12/27 09:44:11;;;;;;;63.50;7.70;;;;;;;;;;5073760;28;20961;-64
2021/12/27 09:46:39;;;;;;;62.07;6.70;;;;;;;;;;5073836;28;20450;-64
2021/12/27 09:49:08;;;;;;;62.43;6.70;;;;;;;;;;5073377;28;20444;-65
2021/12/27 09:51:37;;;;;;;62.33;6.87;;;;;;;;;;5073619;28;20461;-64
2021/12/27 09:54:04;;;;;;;62.75;6.65;;;;;;;;;;5073571;28;20448;-64
2021/12/27 09:56:31;;;;;;;66.47;6.70;;;;;;;;;;5071558;28;20234;-65
2021/12/27 09:58:58;;;;;;;64.87;8.67;;;;;;;;;;5073324;28;20447;-65
2021/12/27 10:01:26;;;;;;;63.50;6.83;;;;;;;;;;5072756;28;20481;-65
2021/12/27 10:03:55;;;;;;;62.03;6.20;;;;;;;;;;5052021;28;20522;-65
2021/12/27 10:06:23;;;;;;;63.90;5.85;;;;;;;;;;5051653;28;20526;-64
2021/12/27 10:08:52;;;;;;;61.20;5.90;;;;;;;;;;5051292;28;20301;-64
2021/12/27 10:11:20;;;;;;;61.17;5.63;;;;;;;;;;5051825;28;20472;-64
2021/12/27 10:14:01;;;;;;;57.95;5.75;;;;;;;;;;5051608;28;20296;-64
2021/12/27 10:16:28;;;;;;;61.40;5.53;;;;;;;;;;5051773;28;20205;-64
2021/12/27 10:18:58;;;;;;;61.63;5.47;;;;;;;;;;5051836;28;20501;-63
2021/12/27 10:21:25;;;;;;;61.17;5.37;;;;;;;;;;5052737;28;21074;-65
2021/12/27 10:24:01;;;;;;;60.47;4.87;;;;;;;;;;5053141;28;20455;-64
2021/12/27 10:26:30;;;;;;;60.67;4.97;;;;;;;;;;5053129;28;20459;-65
2021/12/27 10:29:06;;;;;;;61.00;5.20;;;;;;;;;;5052759;28;20452;-65
2021/12/27 10:31:50;;;;;;;59.90;4.80;;;;;;;;;;5052639;28;20500;-64
2021/12/27 10:34:18;;;;;;;61.50;5.80;;;;;;;;;;5051629;28;20954;-65
2021/12/27 10:36:58;;;;;;;60.67;5.03;;;;;;;;;;5052785;28;21036;-64
2021/12/27 10:39:25;;;;;;;60.00;5.07;;;;;;;;;;5052073;28;20448;-65
2021/12/27 10:41:52;;;;;;;60.50;5.30;;;;;;;;;;5052554;28;20567;-64
2021/12/27 10:44:20;;;;;;;61.63;5.07;;;;;;;;;;5052322;28;20828;-65
2021/12/27 10:46:47;;;;;;;61.60;4.97;;;;;;;;;;5052496;28;20940;-65
2021/12/27 10:49:14;;;;;;;60.40;3.87;;;;;;;;;;5052468;28;20206;-64
2021/12/27 10:51:49;;;;;;;60.47;4.97;;;;;;;;;;5052538;28;20547;-65
2021/12/27 10:54:16;;;;;;;60.67;4.90;;;;;;;;;;5052496;28;20452;-65
2021/12/27 10:56:51;;;;;;;61.10;4.78;;;;;;;;;;5052309;28;20539;-65
2021/12/27 10:59:19;;;;;;;61.17;4.83;;;;;;;;;;5052182;28;20697;-65
2021/12/27 11:01:48;;;;;;;59.77;4.47;;;;;;;;;;5052360;28;20576;-64
2021/12/27 11:04:17;;;;;;;61.47;4.80;;;;;;;;;;5052001;28;20463;-64
2021/12/27 11:06:46;;;;;;;60.97;4.77;;;;;;;;;;5051298;28;20938;-65
2021/12/27 11:09:14;;;;;;;60.45;4.60;;;;;;;;;;5051707;28;20536;-65
2021/12/27 11:11:42;;;;;;;60.47;5.27;;;;;;;;;;5052368;28;20283;-64
2021/12/27 11:14:09;;;;;;;59.77;4.10;;;;;;;;;;5052160;28;20509;-65
2021/12/27 11:16:36;;;;;;;60.40;4.27;;;;;;;;;;5052036;28;20453;-65
2021/12/27 11:19:03;;;;;;;60.87;4.70;;;;;;;;;;5051873;28;20444;-65
2021/12/27 11:21:33;;;;;;;61.47;4.97;;;;;;;;;;5051781;28;20522;-65
2021/12/27 11:24:02;;;;;;;61.87;5.57;;;;;;;;;;5051769;28;20724;-65
2021/12/27 11:26:30;;;;;;;63.87;5.20;;;;;;;;;;5051973;28;20897;-65
2021/12/27 11:29:09;;;;;;;62.27;5.43;;;;;;;;;;5051698;28;20444;-65
2021/12/27 11:31:37;;;;;;;61.30;4.70;;;;;;;;;;5051671;28;20459;-65
2021/12/27 11:34:05;;;;;;;60.47;4.13;;;;;;;;;;5051663;28;20456;-64
2021/12/27 11:36:33;;;;;;;61.05;4.45;;;;;;;;;;5051618;28;20452;-65
2021/12/27 11:39:18;;;;;;;62.20;5.10;;;;;;;;;;5067113;28;20215;-64
2021/12/27 11:41:45;;;;;;;61.47;4.63;;;;;;;;;;5071466;28;20481;-65
2021/12/27 11:44:17;;;;;;;59.07;4.10;;;;;;;;;;5071657;28;20203;-64
2021/12/27 11:46:57;;;;;;;60.73;4.50;;;;;;;;;;5071608;28;20458;-65
2021/12/27 11:49:35;;;;;;;59.93;4.13;;;;;;;;;;5071484;28;20604;-64
2021/12/27 11:52:23;;;;;;;60.07;4.63;;;;;;;;;;5071115;28;20473;-64
2021/12/27 11:54:53;;;;;;;61.92;5.53;;;;;;;;;;5071553;28;20542;-64
2021/12/27 11:57:39;;;;;;;62.50;4.67;;;;;;;;;;5071215;28;20818;-64
2021/12/27 12:00:21;;;;;;;60.42;5.00;;;;;;;;;;5071767;28;20478;-64
2021/12/27 12:02:49;;;;;;;63.13;5.80;;;;;;;;;;5071230;28;20319;-64
2021/12/27 12:05:31;;;;;;;61.57;4.93;;;;;;;;;;5071458;28;20538;-64
2021/12/27 12:07:58;;;;;;;61.90;5.20;;;;;;;;;;5071118;28;20451;-65
2021/12/27 12:10:27;;;;;;;62.35;4.65;;;;;;;;;;5069563;28;20469;-66
2021/12/27 12:13:12;;;;;;;61.57;5.23;;;;;;;;;;5070636;28;20297;-64
2021/12/27 12:15:55;;;;;;;62.30;5.20;;;;;;;;;;5071267;28;20452;-65
2021/12/27 12:18:22;;;;;;;61.47;5.27;;;;;;;;;;5071322;28;20530;-64
2021/12/27 12:20:49;;;;;;;61.97;4.87;;;;;;;;;;5071455;28;20721;-64
2021/12/27 12:23:17;;;;;;;60.67;4.90;;;;;;;;;;5071444;28;20566;-64
2021/12/27 12:25:45;;;;;;;60.80;5.30;;;;;;;;;;5071122;28;20535;-65
2021/12/27 12:28:14;;;;;;;62.03;5.20;;;;;;;;;;5071198;28;20543;-65
2021/12/27 12:30:42;;;;;;;61.43;5.50;;;;;;;;;;5068984;28;20681;-64
2021/12/27 12:33:11;;;;;;;57.92;5.75;;;;;;;;;;5071348;28;20439;-64
2021/12/27 12:35:40;;;;;;;61.03;5.03;;;;;;;;;;5071384;28;20205;-64
2021/12/27 12:38:25;;;;;;;62.10;5.60;;;;;;;;;;5071457;28;20540;-64
2021/12/27 12:41:00;;;;;;;61.03;6.00;;;;;;;;;;5071233;28;20545;-64
2021/12/27 12:43:34;;;;;;;62.47;6.27;;;;;;;;;;5071808;28;20482;-65
2021/12/27 12:46:10;;;;;;;62.50;5.47;;;;;;;;;;5071637;28;20468;-65
2021/12/27 12:48:37;;;;;;;61.13;4.90;;;;;;;;;;5071935;28;20211;-64
2021/12/27 12:51:04;;;;;;;62.40;5.63;;;;;;;;;;5071435;28;20554;-64
2021/12/27 12:53:32;;;;;;;62.00;4.90;;;;;;;;;;5071015;28;20443;-65
2021/12/27 12:56:04;;;;;;;61.77;5.30;;;;;;;;;;5071299;28;20549;-65
2021/12/27 12:58:32;;;;;;;64.03;5.40;;;;;;;;;;5070806;28;20943;-65
2021/12/27 13:01:03;;;;;;;65.17;5.70;;;;;;;;;;5069024;28;20463;-65
2021/12/27 13:03:30;;;;;;;60.57;5.17;;;;;;;;;;5074392;28;20581;-64
2021/12/27 13:05:58;;;;;;;61.78;5.95;;;;;;;;;;5074350;28;20447;-65
2021/12/27 13:08:25;;;;;;;61.90;5.80;;;;;;;;;;5074206;28;20213;-65
2021/12/27 13:10:56;;;;;;;63.60;6.18;;;;;;;;;;5074572;28;20553;-65
2021/12/27 13:13:24;;;;;;;61.17;5.60;;;;;;;;;;5074360;28;20204;-65
2021/12/27 13:15:52;;;;;;;62.90;6.30;;;;;;;;;;5074317;28;20451;-65
2021/12/27 13:18:20;;;;;;;62.70;6.17;;;;;;;;;;5073997;28;20828;-65
2021/12/27 13:20:49;;;;;;;61.97;5.90;;;;;;;;;;5074426;28;20462;-65
2021/12/27 13:23:16;;;;;;;61.03;5.20;;;;;;;;;;5074268;28;20485;-65
2021/12/27 13:25:45;;;;;;;62.87;5.70;;;;;;;;;;5074564;28;20469;-64
2021/12/27 13:28:15;;;;;;;60.47;5.20;;;;;;;;;;5074271;28;20454;-64
2021/12/27 13:30:48;;;;;;;63.23;5.97;;;;;;;;;;5074141;28;20471;-65
2021/12/27 13:33:16;;;;;;;61.40;5.60;;;;;;;;;;5071203;28;20486;-65
2021/12/27 13:35:44;;;;;;;61.90;5.33;;;;;;;;;;5074202;28;20457;-64
2021/12/27 13:38:15;;;;;;;61.20;5.60;;;;;;;;;;5073848;28;20827;-64
2021/12/27 13:40:45;;;;;;;63.20;5.22;;;;;;;;;;5073879;28;20466;-64
2021/12/27 13:43:12;;;;;;;63.43;5.70;;;;;;;;;;5074223;28;20221;-65
2021/12/27 13:45:41;;;;;;;60.77;5.50;;;;;;;;;;5073646;28;20452;-63
2021/12/27 13:48:10;;;;;;;62.23;6.23;;;;;;;;;;5073628;28;20452;-64
2021/12/27 13:50:38;;;;;;;60.90;5.10;;;;;;;;;;5073757;28;20470;-64
2021/12/27 13:53:10;;;;;;;62.50;5.50;;;;;;;;;;5073734;28;20533;-64
2021/12/27 13:55:38;;;;;;;61.67;5.20;;;;;;;;;;5073788;28;21007;-67
2021/12/27 13:58:15;;;;;;;60.93;5.30;;;;;;;;;;5073168;28;20803;-65
2021/12/27 14:00:42;;;;;;;62.10;5.63;;;;;;;;;;5073570;28;20469;-65
2021/12/27 14:06:05;;;;;;;61.67;5.80;;;;;;;;;;5150988;27;21024;-64
2021/12/27 14:08:32;;;;;;;60.67;5.10;;;;;;;;;;5150277;27;20448;-65
2021/12/27 14:11:04;;;;;;;61.57;5.47;;;;;;;;;;5150892;27;20458;-65
2021/12/27 14:13:44;;;;;;;61.27;5.60;;;;;;;;;;5150595;27;20962;-63
2021/12/27 14:16:21;;;;;;;61.33;5.30;;;;;;;;;;5150697;27;20603;-62
2021/12/27 14:19:19;;;;;;;60.67;5.43;;;;;;;;;;5150237;27;20440;-63
2021/12/27 14:22:01;;;;;;;62.30;5.50;;;;;;;;;;5086711;28;20462;-62
2021/12/27 14:24:30;;;;;;;61.67;5.67;;;;;;;;;;5142148;27;20489;-63
2021/12/27 14:26:57;;;;;;;62.23;6.07;;;;;;;;;;5150510;27;20549;-63
2021/12/27 14:29:25;;;;;;;62.50;7.00;;;;;;;;;;5150083;27;20444;-63
2021/12/27 14:31:53;;;;;;;63.77;7.03;;;;;;;;;;5150225;27;20550;-65
2021/12/27 14:34:40;;;;;;;63.37;7.00;;;;;;;;;;5150169;27;20819;-64
2021/12/27 14:37:09;;;;;;;62.37;6.80;;;;;;;;;;5129978;27;20528;-65
2021/12/27 14:39:36;;;;;;;66.90;7.67;;;;;;;;;;5129392;27;21028;-64
2021/12/27 14:42:06;;;;;;;63.43;6.70;;;;;;;;;;5129394;27;20468;-65